Time;durP1;ratioP1;P1;durP2;ratioP2;P2;SDS_P1;SDS_P2;PMS_P1;PMS_P2;Temp;Humidity;BMP_temperature;BMP_pressure;BME280_temperature;BME280_humidity;BME280_pressure;Samples;Min_cycle;Max_cycle;Signal;HPM_P1;HPM_P2
2022/11/05 00:09:30;;;;;;;9.15;3.95;;;6.00;99.90;;;;;;5014481;28;20048;-66
2022/11/05 00:17:28;;;;;;;9.20;3.75;;;5.90;99.90;;;;;;5013575;28;20061;-65
2022/11/05 00:19:55;;;;;;;9.68;4.18;;;5.80;99.90;;;;;;5012679;28;20045;-66
2022/11/05 00:25:20;;;;;;;11.68;4.78;;;5.70;99.90;;;;;;5017391;28;20045;-65
2022/11/05 00:27:49;;;;;;;11.48;3.75;;;5.70;99.90;;;;;;5016413;28;20045;-65
2022/11/05 00:30:18;;;;;;;11.75;3.95;;;5.60;99.90;;;;;;5035211;28;20049;-64
2022/11/05 00:32:48;;;;;;;8.77;4.97;;;5.60;99.90;;;;;;5033128;28;20111;-64
2022/11/05 00:35:16;;;;;;;7.85;3.80;;;5.60;99.90;;;;;;5016863;28;20555;-65
2022/11/05 00:37:43;;;;;;;13.38;4.80;;;5.50;99.90;;;;;;5017333;28;20049;-65
2022/11/05 00:40:12;;;;;;;11.88;4.22;;;5.50;99.90;;;;;;5016338;28;20053;-66
2022/11/05 00:45:26;;;;;;;7.78;3.92;;;5.50;99.90;;;;;;5015698;28;20045;-65
2022/11/05 00:50:39;;;;;;;9.70;4.25;;;5.50;99.90;;;;;;5035119;28;20061;-65
2022/11/05 00:53:06;;;;;;;16.50;5.20;;;5.40;99.90;;;;;;5017401;28;20136;-65
2022/11/05 00:55:36;;;;;;;11.18;4.40;;;5.50;99.90;;;;;;5034451;28;20099;-64
2022/11/05 00:58:05;;;;;;;10.13;4.35;;;5.40;99.90;;;;;;5016516;28;20124;-66
2022/11/05 01:00:34;;;;;;;11.45;4.03;;;5.40;99.90;;;;;;5016251;28;20058;-65
2022/11/05 01:03:06;;;;;;;11.10;3.95;;;5.40;99.90;;;;;;5016156;28;20095;-64
2022/11/05 01:05:34;;;;;;;8.60;3.72;;;5.40;99.90;;;;;;5034431;28;20099;-66
2022/11/05 01:08:01;;;;;;;8.23;3.85;;;5.40;99.90;;;;;;5016505;28;20103;-65
2022/11/05 01:10:29;;;;;;;9.10;4.00;;;5.30;99.90;;;;;;5033885;28;20049;-65
2022/11/05 01:12:56;;;;;;;6.63;3.53;;;5.30;99.90;;;;;;5015516;28;20045;-64
2022/11/05 01:15:23;;;;;;;8.57;3.83;;;5.30;99.90;;;;;;5017008;28;20057;-65
2022/11/05 01:17:51;;;;;;;7.50;3.95;;;5.30;99.90;;;;;;5033813;28;20115;-63
2022/11/05 01:20:19;;;;;;;8.65;3.83;;;5.30;99.90;;;;;;5034487;28;20053;-65
2022/11/05 01:22:46;;;;;;;10.68;3.55;;;5.30;99.90;;;;;;5032793;28;20049;-64
2022/11/05 01:25:13;;;;;;;6.30;3.90;;;5.30;99.90;;;;;;5016226;28;20049;-64
2022/11/05 01:27:40;;;;;;;8.55;3.70;;;5.30;99.90;;;;;;5032586;28;20042;-64
2022/11/05 01:30:09;;;;;;;8.02;4.38;;;5.30;99.90;;;;;;5016659;28;20049;-64
2022/11/05 01:32:36;;;;;;;8.35;3.80;;;5.30;99.90;;;;;;5016219;28;20057;-64
2022/11/05 01:35:04;;;;;;;9.75;4.50;;;5.30;99.90;;;;;;5015844;28;20041;-65
2022/11/05 01:37:33;;;;;;;10.98;3.47;;;5.20;99.90;;;;;;5015515;28;20050;-65
2022/11/05 01:40:00;;;;;;;8.00;3.35;;;5.20;99.90;;;;;;5014870;28;20515;-64
2022/11/05 01:42:28;;;;;;;7.63;3.72;;;5.20;99.90;;;;;;5033810;28;20107;-64
2022/11/05 01:44:58;;;;;;;9.13;3.63;;;5.20;99.90;;;;;;5014220;28;20053;-64
2022/11/05 01:47:34;;;;;;;9.77;4.65;;;5.30;99.90;;;;;;5033900;28;20485;-63
2022/11/05 01:50:05;;;;;;;10.52;3.38;;;5.20;99.90;;;;;;5013974;28;20049;-65
2022/11/05 01:52:34;;;;;;;;;;;5.20;99.90;;;;;;5016070;28;20417;-65
2022/11/05 01:55:02;;;;;;;9.10;3.65;;;5.20;99.90;;;;;;5016524;28;19921;-65
2022/11/05 01:57:30;;;;;;;7.05;2.88;;;5.20;99.90;;;;;;5033512;28;20452;-65
2022/11/05 01:59:59;;;;;;;7.75;3.50;;;5.10;99.90;;;;;;5033143;28;20045;-64
2022/11/05 02:02:26;;;;;;;7.00;3.40;;;5.10;99.90;;;;;;5031874;28;20490;-64
2022/11/05 02:04:57;;;;;;;6.15;2.90;;;5.10;99.90;;;;;;5033568;28;20104;-65
2022/11/05 02:07:26;;;;;;;17.50;4.60;;;5.10;99.90;;;;;;5032891;28;20493;-64
2022/11/05 02:10:01;;;;;;;8.98;3.25;;;5.10;99.90;;;;;;5016047;28;20485;-66
2022/11/05 02:12:28;;;;;;;11.95;5.20;;;5.10;99.90;;;;;;5015292;28;20042;-65
2022/11/05 02:14:56;;;;;;;10.00;3.65;;;5.10;99.90;;;;;;5031639;28;20056;-64
2022/11/05 02:17:37;;;;;;;9.68;3.40;;;5.10;99.90;;;;;;5014817;28;20103;-64
2022/11/05 02:20:28;;;;;;;7.55;3.13;;;5.10;99.90;;;;;;5013350;28;20053;-64
2022/11/05 02:23:40;;;;;;;5.22;2.85;;;5.10;99.90;;;;;;5015773;28;20045;-64
2022/11/05 02:26:51;;;;;;;11.18;3.75;;;5.10;99.90;;;;;;5032975;28;20061;-65
2022/11/05 02:29:52;;;;;;;6.97;2.90;;;5.10;99.90;;;;;;5014720;28;20111;-65
2022/11/05 02:32:25;;;;;;;;;;;5.10;99.90;;;;;;5021557;28;20041;-65
2022/11/05 02:35:01;;;;;;;8.30;2.90;;;5.10;99.90;;;;;;5013883;28;19920;-65
2022/11/05 02:37:39;;;;;;;9.82;3.20;;;5.10;99.90;;;;;;5015159;28;20547;-64
2022/11/05 02:40:13;;;;;;;8.38;3.10;;;5.20;99.90;;;;;;5014956;28;20079;-65
2022/11/05 02:42:46;;;;;;;8.30;3.38;;;5.20;99.90;;;;;;5011534;28;20096;-65
2022/11/05 02:45:25;;;;;;;6.50;3.22;;;5.20;99.90;;;;;;5032678;28;20492;-65
2022/11/05 02:47:59;;;;;;;9.68;2.83;;;5.20;99.90;;;;;;5013632;28;20099;-64
2022/11/05 02:50:33;;;;;;;7.40;3.00;;;5.20;99.90;;;;;;5032758;28;20056;-65
2022/11/05 02:53:03;;;;;;;10.45;3.08;;;5.20;99.90;;;;;;5031492;28;20560;-64
2022/11/05 02:55:36;;;;;;;9.27;3.05;;;5.20;99.90;;;;;;5012663;28;20545;-65
2022/11/05 02:58:04;;;;;;;10.57;2.67;;;5.20;99.90;;;;;;5031128;28;20087;-65
2022/11/05 03:00:43;;;;;;;5.32;2.70;;;5.20;99.90;;;;;;5014420;28;20095;-65
2022/11/05 03:03:17;;;;;;;6.63;2.90;;;5.10;99.90;;;;;;5014687;28;20444;-64
2022/11/05 03:05:55;;;;;;;4.90;3.10;;;5.20;99.90;;;;;;5014434;28;20045;-65
2022/11/05 03:08:33;;;;;;;7.97;3.58;;;5.10;99.90;;;;;;5014490;28;20443;-64
2022/11/05 03:11:06;;;;;;;5.50;2.55;;;5.10;99.90;;;;;;5014224;28;20092;-64
2022/11/05 03:13:39;;;;;;;9.13;3.28;;;5.10;99.90;;;;;;5031236;28;20095;-64
2022/11/05 03:16:12;;;;;;;11.48;3.28;;;5.10;99.90;;;;;;5031233;28;20099;-64
2022/11/05 03:18:47;;;;;;;9.48;2.97;;;6.30;99.90;;;;;;5031960;28;20057;-65
2022/11/05 03:21:20;;;;;;;8.98;2.92;;;5.10;99.90;;;;;;5032008;28;20069;-64
2022/11/05 03:23:53;;;;;;;5.88;2.45;;;5.10;99.90;;;;;;5014074;28;20053;-65
2022/11/05 03:26:24;;;;;;;10.30;3.15;;;5.20;99.90;;;;;;5013985;28;20053;-64
2022/11/05 03:28:56;;;;;;;7.15;2.85;;;5.30;99.90;;;;;;5031841;28;20432;-65
2022/11/05 03:31:25;;;;;;;5.05;3.13;;;5.20;99.90;;;;;;5031424;28;20413;-65
2022/11/05 03:33:54;;;;;;;11.32;2.80;;;5.30;99.90;;;;;;5014258;28;20505;-64
2022/11/05 03:36:26;;;;;;;4.85;2.55;;;5.30;99.90;;;;;;5014526;28;20053;-65
2022/11/05 03:38:56;;;;;;;9.73;3.35;;;5.30;99.90;;;;;;5031775;28;20381;-65
2022/11/05 03:41:24;;;;;;;9.27;3.92;;;5.30;99.90;;;;;;5014097;28;20567;-66
2022/11/05 03:43:56;;;;;;;7.32;3.17;;;5.40;99.90;;;;;;5012250;28;20056;-65
2022/11/05 03:46:27;;;;;;;5.88;2.75;;;5.40;99.90;;;;;;5031053;28;20053;-65
2022/11/05 03:48:57;;;;;;;7.85;2.90;;;5.40;99.90;;;;;;5012866;28;20061;-64
2022/11/05 03:51:32;;;;;;;8.20;3.13;;;5.50;99.90;;;;;;5013193;28;20049;-65
2022/11/05 03:54:02;;;;;;;5.13;2.67;;;5.70;99.90;;;;;;5029487;28;20436;-65
2022/11/05 03:56:34;;;;;;;10.50;2.80;;;5.60;99.90;;;;;;5013646;28;20058;-65
2022/11/05 03:59:02;;;;;;;6.07;3.00;;;5.70;99.90;;;;;;5033126;28;20053;-65
2022/11/05 04:01:30;;;;;;;9.25;2.80;;;5.80;99.90;;;;;;5018454;28;20503;-65
2022/11/05 04:03:58;;;;;;;6.18;2.65;;;5.90;99.90;;;;;;5035646;28;20385;-65
2022/11/05 04:14:39;;;;;;;7.40;3.17;;;6.20;99.90;;;;;;5033646;28;20045;-66
2022/11/05 04:17:08;;;;;;;9.18;2.83;;;5.60;99.90;;;;;;5034000;28;20085;-66
2022/11/05 04:25:07;;;;;;;5.35;2.50;;;6.40;99.90;;;;;;5017561;28;20045;-65
2022/11/05 04:27:34;;;;;;;8.13;2.88;;;6.40;99.90;;;;;;5017255;28;20450;-65
2022/11/05 04:30:19;;;;;;;6.60;2.60;;;6.50;99.90;;;;;;5035525;28;20049;-66
2022/11/05 04:32:57;;;;;;;9.65;2.60;;;6.50;99.90;;;;;;5035346;28;20038;-66
2022/11/05 04:35:26;;;;;;;8.13;2.65;;;6.60;99.90;;;;;;5017306;28;20111;-66
2022/11/05 04:37:53;;;;;;;7.40;3.03;;;6.60;99.90;;;;;;5035325;28;20455;-65
2022/11/05 04:40:20;;;;;;;6.13;2.60;;;6.60;99.90;;;;;;5016023;28;20053;-65
2022/11/05 04:42:47;;;;;;;12.23;3.40;;;6.60;99.90;;;;;;5033307;28;20057;-66
2022/11/05 04:45:14;;;;;;;6.55;2.90;;;6.50;99.90;;;;;;5017174;28;20443;-65
2022/11/05 04:47:41;;;;;;;6.20;2.70;;;6.50;99.90;;;;;;5033919;28;20106;-66
2022/11/05 04:50:10;;;;;;;5.68;2.80;;;6.40;99.90;;;;;;5017196;28;20057;-66
2022/11/05 04:52:39;;;;;;;13.35;2.85;;;6.30;99.90;;;;;;5033731;28;20046;-65
2022/11/05 04:55:07;;;;;;;7.35;2.83;;;6.20;99.90;;;;;;5014391;28;20072;-66
2022/11/05 04:57:34;;;;;;;6.35;2.95;;;6.20;99.90;;;;;;5035049;28;20053;-65
2022/11/05 05:00:02;;;;;;;7.25;3.13;;;6.20;99.90;;;;;;5016468;28;20061;-65
2022/11/05 05:02:29;;;;;;;7.22;3.38;;;6.20;99.90;;;;;;5016340;28;20442;-66
2022/11/05 05:04:55;;;;;;;8.68;4.20;;;6.20;99.90;;;;;;5017313;28;20056;-65
2022/11/05 05:07:22;;;;;;;7.60;3.88;;;6.10;99.90;;;;;;5016684;28;20065;-65
2022/11/05 05:09:51;;;;;;;9.95;3.80;;;6.10;99.90;;;;;;5015269;28;20108;-65
2022/11/05 05:12:17;;;;;;;7.32;4.18;;;6.10;99.90;;;;;;5016248;28;20437;-65
2022/11/05 05:14:48;;;;;;;8.05;3.83;;;6.00;99.90;;;;;;5033156;28;20509;-65
2022/11/05 05:17:15;;;;;;;7.13;4.47;;;6.00;99.90;;;;;;5013097;28;20046;-64
2022/11/05 05:22:26;;;;;;;9.48;4.85;;;5.90;99.90;;;;;;5034081;28;20477;-65
2022/11/05 05:24:55;;;;;;;9.38;4.90;;;5.90;99.90;;;;;;5034188;28;20041;-66
2022/11/05 05:27:22;;;;;;;13.30;5.10;;;5.90;99.90;;;;;;5016576;28;20056;-65
2022/11/05 05:29:49;;;;;;;10.05;5.45;;;5.90;99.90;;;;;;5015967;28;20057;-65
2022/11/05 05:32:16;;;;;;;11.57;5.80;;;5.90;99.90;;;;;;5016333;28;20045;-64
2022/11/05 05:34:43;;;;;;;10.32;5.53;;;5.90;99.90;;;;;;5015455;28;20100;-65
2022/11/05 05:37:10;;;;;;;10.02;5.22;;;5.80;99.90;;;;;;5015397;28;20076;-64
2022/11/05 05:39:36;;;;;;;10.00;5.30;;;5.80;99.90;;;;;;5015451;28;20050;-65
2022/11/05 05:42:05;;;;;;;16.08;5.35;;;5.80;99.90;;;;;;5033482;28;20559;-64
2022/11/05 05:44:32;;;;;;;7.47;5.43;;;5.80;99.90;;;;;;5013242;28;20051;-64
2022/11/05 05:46:59;;;;;;;9.07;5.43;;;5.80;99.90;;;;;;5016052;28;20045;-64
2022/11/05 05:49:25;;;;;;;9.40;5.57;;;5.70;99.90;;;;;;5015570;28;20405;-64
2022/11/05 05:51:52;;;;;;;10.73;5.78;;;5.70;99.90;;;;;;5033033;28;20045;-64
2022/11/05 05:54:19;;;;;;;10.15;5.63;;;5.70;99.90;;;;;;5016182;28;20112;-65
2022/11/05 05:56:46;;;;;;;12.02;6.07;;;5.60;99.90;;;;;;5015543;28;20111;-65
2022/11/05 05:59:14;;;;;;;12.68;6.10;;;5.60;99.90;;;;;;5015237;28;20531;-65
2022/11/05 06:01:41;;;;;;;10.95;5.07;;;5.50;99.90;;;;;;5033393;28;20099;-64
2022/11/05 06:04:09;;;;;;;12.05;5.35;;;5.50;99.90;;;;;;5015765;28;20104;-65
2022/11/05 06:06:36;;;;;;;7.85;4.65;;;5.50;99.90;;;;;;5033256;28;20053;-65
2022/11/05 06:09:03;;;;;;;8.80;5.20;;;5.50;99.90;;;;;;5013984;28;20045;-65
2022/11/05 06:11:30;;;;;;;9.98;5.75;;;5.50;99.90;;;;;;5015683;28;20053;-64
2022/11/05 06:13:57;;;;;;;11.85;5.30;;;5.50;99.90;;;;;;5029666;28;20485;-65
2022/11/05 06:16:26;;;;;;;8.52;5.40;;;5.50;99.90;;;;;;5015430;28;20100;-66
2022/11/05 06:18:53;;;;;;;13.23;5.30;;;5.60;99.90;;;;;;5030652;28;20493;-65
2022/11/05 06:21:20;;;;;;;8.82;5.20;;;5.50;99.90;;;;;;5032733;28;20050;-65
2022/11/05 06:23:48;;;;;;;9.07;5.57;;;5.50;99.90;;;;;;5013906;28;20054;-65
2022/11/05 06:26:17;;;;;;;9.02;5.20;;;5.50;99.90;;;;;;5031842;28;20045;-64
2022/11/05 06:28:45;;;;;;;8.35;4.97;;;5.50;99.90;;;;;;5031943;28;20045;-66
2022/11/05 06:31:14;;;;;;;9.10;5.80;;;5.40;99.90;;;;;;5032689;28;20104;-65
2022/11/05 06:33:42;;;;;;;10.40;5.45;;;5.40;99.90;;;;;;5032280;28;20045;-65
2022/11/05 06:36:17;;;;;;;11.10;5.85;;;5.40;99.90;;;;;;5015508;28;20057;-65
2022/11/05 06:38:44;;;;;;;8.98;4.78;;;5.30;99.90;;;;;;5015467;28;20084;-65
2022/11/05 06:41:11;;;;;;;9.77;5.80;;;5.30;99.90;;;;;;5031573;28;20445;-64
2022/11/05 06:43:38;;;;;;;9.50;5.00;;;5.20;99.90;;;;;;5033015;28;20041;-65
2022/11/05 06:46:06;;;;;;;10.43;5.38;;;5.20;99.90;;;;;;5031734;28;20053;-64
2022/11/05 06:48:33;;;;;;;8.02;5.00;;;5.20;99.90;;;;;;5031977;28;20053;-64
2022/11/05 06:51:01;;;;;;;8.15;5.15;;;5.10;99.90;;;;;;5014745;28;20103;-64
2022/11/05 06:53:29;;;;;;;10.40;5.70;;;5.20;99.90;;;;;;5014698;28;20057;-64
2022/11/05 06:55:55;;;;;;;9.05;5.50;;;5.10;99.90;;;;;;5012269;28;20061;-65
2022/11/05 06:58:22;;;;;;;9.30;5.20;;;5.10;99.90;;;;;;5032849;28;20049;-64
2022/11/05 07:00:49;;;;;;;11.93;5.45;;;5.10;99.90;;;;;;5032575;28;20475;-65
2022/11/05 07:03:16;;;;;;;10.80;5.90;;;5.10;99.90;;;;;;5031914;28;20382;-64
2022/11/05 07:05:45;;;;;;;8.65;5.32;;;5.10;99.90;;;;;;4998911;28;20045;-65
2022/11/05 07:08:14;;;;;;;8.63;5.53;;;5.10;99.90;;;;;;4997726;28;20907;-67
2022/11/05 07:10:40;;;;;;;9.65;5.60;;;5.10;99.90;;;;;;5026186;28;20136;-64
2022/11/05 07:13:08;;;;;;;13.32;5.50;;;5.10;99.90;;;;;;5025306;28;20160;-64
2022/11/05 07:15:35;;;;;;;9.07;5.53;;;5.20;99.90;;;;;;5008594;28;20119;-65
2022/11/05 07:18:02;;;;;;;8.82;5.30;;;5.20;99.90;;;;;;5026116;28;20049;-65
2022/11/05 07:20:29;;;;;;;8.73;5.45;;;5.20;99.90;;;;;;5027220;28;20045;-65
2022/11/05 07:23:02;;;;;;;7.78;5.22;;;5.20;99.90;;;;;;5026554;28;20523;-66
2022/11/05 07:25:31;;;;;;;11.65;6.13;;;5.40;99.90;;;;;;5008125;28;20050;-65
2022/11/05 07:27:58;;;;;;;8.00;5.05;;;5.40;99.90;;;;;;5009756;28;20111;-65
2022/11/05 07:30:25;;;;;;;7.03;5.15;;;5.50;99.90;;;;;;5008252;28;20049;-65
2022/11/05 07:32:52;;;;;;;12.23;5.53;;;5.50;99.90;;;;;;5028915;28;20099;-64
2022/11/05 07:35:19;;;;;;;8.52;5.47;;;5.60;99.90;;;;;;5027277;28;20497;-64
2022/11/05 07:37:47;;;;;;;9.40;5.50;;;5.70;99.90;;;;;;5023409;28;20493;-65
2022/11/05 07:40:16;;;;;;;7.80;5.53;;;6.00;99.90;;;;;;5008389;28;20107;-65
2022/11/05 07:42:47;;;;;;;7.57;5.45;;;6.20;99.90;;;;;;5006544;28;20053;-65
2022/11/05 07:45:14;;;;;;;8.20;4.97;;;7.10;99.90;;;;;;5025486;28;20451;-64
2022/11/05 07:47:46;;;;;;;7.40;4.43;;;8.50;99.90;;;;;;5007308;28;20107;-64
2022/11/05 07:50:13;;;;;;;6.70;3.88;;;9.90;99.90;;;;;;5021687;28;20091;-65
2022/11/05 07:52:40;;;;;;;5.70;3.20;;;10.90;99.90;;;;;;5006538;28;20083;-66
2022/11/05 07:55:08;;;;;;;6.63;3.35;;;11.90;99.90;;;;;;5021680;28;20049;-64
2022/11/05 07:57:40;;;;;;;9.55;3.50;;;12.90;99.90;;;;;;5007665;28;20061;-65
2022/11/05 08:00:11;;;;;;;4.97;2.85;;;13.60;99.90;;;;;;5028624;28;20045;-65
2022/11/05 08:02:38;;;;;;;4.82;2.88;;;14.10;99.90;;;;;;5008403;28;20089;-65
2022/11/05 08:05:05;;;;;;;3.70;2.65;;;14.60;99.90;;;;;;5008928;28;20054;-65
2022/11/05 08:07:32;;;;;;;10.82;3.50;;;15.10;99.90;;;;;;5010757;28;20045;-65
2022/11/05 08:09:59;;;;;;;5.03;2.60;;;15.50;99.90;;;;;;5022614;28;20045;-64
2022/11/05 08:12:26;;;;;;;4.75;2.92;;;15.80;99.90;;;;;;5024766;28;20103;-65
2022/11/05 08:14:52;;;;;;;3.78;2.67;;;16.10;99.90;;;;;;5024379;28;20054;-65
2022/11/05 08:17:21;;;;;;;4.05;2.42;;;16.60;99.90;;;;;;5003016;28;20508;-65
2022/11/05 08:19:48;;;;;;;7.05;2.42;;;16.90;99.90;;;;;;5009211;28;20042;-65
2022/11/05 08:22:14;;;;;;;4.40;2.55;;;17.00;99.90;;;;;;5003528;28;20050;-66
2022/11/05 08:24:41;;;;;;;5.03;2.60;;;17.40;99.90;;;;;;5002402;28;20080;-66
2022/11/05 08:27:08;;;;;;;5.28;2.67;;;17.70;99.90;;;;;;5003650;28;20057;-65
2022/11/05 08:29:35;;;;;;;7.90;2.50;;;17.20;99.90;;;;;;5008902;28;20103;-65
2022/11/05 08:32:02;;;;;;;8.15;2.42;;;17.40;99.90;;;;;;5004950;28;20467;-65
2022/11/05 08:34:30;;;;;;;5.97;2.70;;;17.40;99.90;;;;;;5009101;28;20445;-65
2022/11/05 08:36:57;;;;;;;5.22;2.28;;;17.40;99.90;;;;;;5005378;28;20557;-65
2022/11/05 08:39:24;;;;;;;4.22;2.22;;;17.50;99.90;;;;;;5005371;28;20504;-65
2022/11/05 08:41:50;;;;;;;7.53;2.47;;;17.70;99.90;;;;;;5003361;28;20064;-65
2022/11/05 08:44:17;;;;;;;4.93;2.28;;;18.20;99.90;;;;;;5000863;28;20105;-65
2022/11/05 08:46:44;;;;;;;4.35;2.20;;;19.10;99.90;;;;;;5006820;28;20077;-66
2022/11/05 08:49:11;;;;;;;4.53;1.98;;;19.00;99.90;;;;;;5012360;28;20053;-65
2022/11/05 08:51:39;;;;;;;4.22;2.00;;;18.40;99.90;;;;;;5010229;28;20092;-66
2022/11/05 08:54:06;;;;;;;4.63;2.28;;;17.40;99.90;;;;;;5006329;28;20041;-66
2022/11/05 08:56:33;;;;;;;3.28;2.05;;;17.60;99.90;;;;;;5013060;28;20096;-65
2022/11/05 08:59:00;;;;;;;4.93;2.10;;;18.50;99.90;;;;;;5006257;28;20050;-66
2022/11/05 09:01:27;;;;;;;5.43;1.73;;;19.40;99.90;;;;;;5007142;28;20050;-66
2022/11/05 09:03:54;;;;;;;4.20;1.90;;;20.40;99.90;;;;;;5012602;28;20509;-65
2022/11/05 09:06:21;;;;;;;4.25;1.80;;;21.40;99.30;;;;;;5008357;28;20466;-65
2022/11/05 09:08:49;;;;;;;5.30;1.85;;;22.30;97.60;;;;;;5008007;28;20497;-66
2022/11/05 09:11:17;;;;;;;2.95;1.70;;;22.00;94.40;;;;;;5007241;28;20597;-65
2022/11/05 09:13:43;;;;;;;4.72;1.92;;;21.90;95.80;;;;;;5006849;28;20869;-65
2022/11/05 09:16:18;;;;;;;4.85;1.83;;;20.50;95.90;;;;;;5014020;28;20084;-66
2022/11/05 09:18:44;;;;;;;3.70;1.90;;;19.50;97.00;;;;;;5031235;28;20590;-66
2022/11/05 09:21:11;;;;;;;4.65;1.42;;;18.20;99.50;;;;;;5032955;28;20103;-66
2022/11/05 09:23:38;;;;;;;3.53;1.90;;;17.10;99.90;;;;;;5015584;28;20095;-67
2022/11/05 09:26:06;;;;;;;6.13;2.05;;;16.20;99.90;;;;;;5016660;28;20366;-66
2022/11/05 09:28:33;;;;;;;4.88;1.83;;;15.80;99.90;;;;;;5034046;28;20045;-66
2022/11/05 09:31:00;;;;;;;5.95;2.10;;;15.30;99.90;;;;;;5016186;28;20049;-66
2022/11/05 09:33:27;;;;;;;3.67;1.73;;;15.10;99.90;;;;;;5033965;28;20107;-66
2022/11/05 09:35:54;;;;;;;5.18;2.00;;;14.80;99.90;;;;;;5033801;28;20041;-65
2022/11/05 09:38:21;;;;;;;5.90;2.05;;;14.60;99.90;;;;;;5031727;28;20049;-66
2022/11/05 09:40:57;;;;;;;4.40;1.88;;;14.60;99.90;;;;;;5015057;28;20149;-66
2022/11/05 09:43:30;;;;;;;4.80;2.53;;;14.30;99.90;;;;;;5014022;28;20511;-66
2022/11/05 09:46:03;;;;;;;5.00;1.92;;;14.10;99.90;;;;;;5016373;28;20042;-65
2022/11/05 09:48:32;;;;;;;4.40;1.98;;;13.90;99.90;;;;;;5032557;28;20446;-65
2022/11/05 09:50:59;;;;;;;5.03;2.03;;;13.70;99.90;;;;;;5033687;28;20456;-65
2022/11/05 09:53:27;;;;;;;6.45;1.90;;;13.60;99.90;;;;;;5016302;28;20513;-66
2022/11/05 09:55:56;;;;;;;6.43;2.00;;;13.40;99.90;;;;;;5033411;28;20444;-65
2022/11/05 09:58:31;;;;;;;4.30;2.00;;;13.90;99.90;;;;;;5031260;28;20099;-66
2022/11/05 10:00:58;;;;;;;6.45;1.88;;;14.60;99.90;;;;;;5031763;28;20826;-66
2022/11/05 10:03:28;;;;;;;3.58;1.80;;;14.90;99.90;;;;;;5015788;28;20053;-66
2022/11/05 10:06:03;;;;;;;4.60;1.85;;;15.90;99.90;;;;;;5033601;28;20444;-66
2022/11/05 10:08:34;;;;;;;5.47;1.98;;;17.10;99.90;;;;;;5014356;28;20108;-65
2022/11/05 10:11:07;;;;;;;9.00;1.98;;;17.90;99.90;;;;;;5014884;28;20111;-66
2022/11/05 10:13:40;;;;;;;4.38;1.77;;;18.40;99.90;;;;;;5031398;28;20554;-66
2022/11/05 10:16:23;;;;;;;4.15;1.88;;;19.40;99.90;;;;;;5015236;28;20100;-66
2022/11/05 10:18:55;;;;;;;4.05;1.40;;;20.20;99.90;;;;;;5013097;28;20050;-66
2022/11/05 10:21:21;;;;;;;4.07;1.75;;;21.00;98.00;;;;;;5015877;28;20053;-66
2022/11/05 10:23:48;;;;;;;5.18;1.73;;;20.30;99.10;;;;;;5031098;28;20107;-66
2022/11/05 10:26:20;;;;;;;5.97;2.13;;;19.80;99.40;;;;;;5014969;28;20049;-66
2022/11/05 10:28:50;;;;;;;4.47;1.73;;;20.20;98.70;;;;;;5012970;28;20057;-66
2022/11/05 10:31:20;;;;;;;4.85;2.03;;;20.80;98.90;;;;;;5015023;28;20056;-66
2022/11/05 10:33:48;;;;;;;3.85;1.67;;;21.60;97.50;;;;;;5032170;28;20055;-66
2022/11/05 10:36:21;;;;;;;5.03;1.73;;;20.80;96.60;;;;;;5012593;28;20041;-66
2022/11/05 10:38:48;;;;;;;4.95;1.92;;;19.70;97.50;;;;;;5032170;28;20050;-66
2022/11/05 10:41:31;;;;;;;3.60;1.55;;;19.80;98.70;;;;;;5013559;28;20452;-65
2022/11/05 10:44:08;;;;;;;4.70;1.92;;;20.70;97.20;;;;;;5019088;28;20046;-65
2022/11/05 10:46:41;;;;;;;7.45;2.47;;;21.50;95.50;;;;;;5007408;28;20121;-65
2022/11/05 10:49:22;;;;;;;4.18;2.15;;;21.70;95.90;;;;;;5008543;28;20123;-65
2022/11/05 10:51:53;;;;;;;;;;;21.10;94.50;;;;;;5008254;28;20100;-65
2022/11/05 10:54:24;;;;;;;7.07;2.05;;;20.90;95.10;;;;;;5024752;28;19948;-64
2022/11/05 10:56:51;;;;;;;3.10;1.60;;;21.50;95.40;;;;;;5023579;28;20551;-66
2022/11/05 10:59:24;;;;;;;4.72;1.75;;;22.30;95.30;;;;;;5022858;28;20056;-66
2022/11/05 11:01:57;;;;;;;6.88;1.85;;;22.90;92.50;;;;;;5027379;28;20049;-65
2022/11/05 11:04:26;;;;;;;4.82;1.70;;;23.20;91.80;;;;;;5026071;28;20057;-66
2022/11/05 11:06:55;;;;;;;6.55;1.75;;;22.90;91.90;;;;;;5006190;28;20087;-66
2022/11/05 11:09:26;;;;;;;5.32;1.90;;;23.40;92.10;;;;;;5002910;28;20060;-65
2022/11/05 11:11:58;;;;;;;5.70;1.83;;;23.90;91.10;;;;;;5012897;28;20107;-65
2022/11/05 11:14:27;;;;;;;7.90;1.75;;;23.30;90.50;;;;;;5022308;28;20461;-65
2022/11/05 11:16:56;;;;;;;5.40;1.80;;;23.40;91.30;;;;;;5006797;28;20057;-65
2022/11/05 11:19:30;;;;;;;3.42;1.63;;;23.30;91.10;;;;;;5024825;28;20501;-65
2022/11/05 11:22:27;;;;;;;5.20;1.70;;;23.60;90.90;;;;;;5007311;28;20050;-65
2022/11/05 11:24:54;;;;;;;5.65;1.77;;;23.80;86.80;;;;;;4982476;28;20046;-65
2022/11/05 11:27:23;;;;;;;7.28;1.55;;;23.90;89.60;;;;;;4999497;28;20054;-66
2022/11/05 11:29:57;;;;;;;4.03;1.45;;;24.40;87.50;;;;;;5030601;28;20045;-66
2022/11/05 11:32:28;;;;;;;3.50;1.33;;;24.60;85.00;;;;;;5005565;28;20139;-66
2022/11/05 11:34:56;;;;;;;4.75;1.42;;;23.80;84.20;;;;;;5007082;28;20099;-66
2022/11/05 11:37:27;;;;;;;3.35;1.42;;;24.50;85.70;;;;;;5006817;28;20041;-66
2022/11/05 11:39:57;;;;;;;5.53;2.13;;;24.50;84.70;;;;;;5024799;28;20378;-67
2022/11/05 11:42:33;;;;;;;6.75;1.88;;;24.10;84.20;;;;;;5029260;28;20049;-66
2022/11/05 11:45:06;;;;;;;3.13;1.33;;;24.30;83.20;;;;;;5024402;28;20471;-66
2022/11/05 11:47:34;;;;;;;3.78;1.60;;;23.70;82.10;;;;;;5007584;28;20140;-66
2022/11/05 11:50:01;;;;;;;4.80;1.58;;;22.90;84.50;;;;;;5008307;28;20080;-65
2022/11/05 11:52:30;;;;;;;4.57;1.60;;;22.10;86.10;;;;;;5012777;28;20132;-66
2022/11/05 11:55:27;;;;;;;3.25;1.45;;;20.30;89.30;;;;;;5023530;28;20045;-66
2022/11/05 11:58:06;;;;;;;4.68;1.23;;;19.10;91.50;;;;;;4947889;28;20113;-66
2022/11/05 12:00:39;;;;;;;3.92;1.67;;;18.40;93.40;;;;;;5000200;28;20135;-66
2022/11/05 12:03:22;;;;;;;3.88;1.55;;;17.60;94.80;;;;;;5003266;28;20057;-67
2022/11/05 12:05:57;;;;;;;3.45;1.83;;;17.40;96.10;;;;;;5021679;28;20133;-66
2022/11/05 12:08:41;;;;;;;6.18;1.48;;;16.90;96.90;;;;;;5007995;28;20493;-67
2022/11/05 12:11:14;;;;;;;4.55;1.80;;;16.20;98.30;;;;;;5024134;28;20147;-65
2022/11/05 12:14:03;;;;;;;6.30;1.58;;;15.30;99.90;;;;;;5029697;28;20057;-65
2022/11/05 12:16:53;;;;;;;3.88;1.45;;;15.00;99.90;;;;;;5024475;28;20061;-65
2022/11/05 12:19:31;;;;;;;2.97;1.60;;;14.60;99.90;;;;;;5026793;28;20050;-66
2022/11/05 12:22:05;;;;;;;2.70;1.38;;;14.20;99.90;;;;;;5013341;28;20103;-67
2022/11/05 12:24:57;;;;;;;3.78;1.40;;;13.80;99.90;;;;;;5011537;28;20115;-66
2022/11/05 12:27:39;;;;;;;5.20;1.48;;;13.50;99.90;;;;;;5012458;28;20548;-65
2022/11/05 12:30:11;;;;;;;6.43;1.50;;;13.30;99.90;;;;;;5027099;28;20054;-66
2022/11/05 12:33:11;;;;;;;4.00;1.35;;;13.10;99.90;;;;;;5026565;28;20050;-66
2022/11/05 12:35:45;;;;;;;3.08;1.10;;;13.00;99.90;;;;;;5012803;28;20046;-66
2022/11/05 12:38:25;;;;;;;1.48;0.80;;;12.90;99.90;;;;;;5011564;28;20493;-66
2022/11/05 12:41:04;;;;;;;1.70;0.80;;;12.80;99.90;;;;;;5010104;28;20069;-65
2022/11/05 12:43:40;;;;;;;2.58;0.82;;;12.70;99.90;;;;;;5013407;28;20057;-66
2022/11/05 12:46:24;;;;;;;2.88;0.90;;;12.60;99.90;;;;;;5008339;28;20041;-65
2022/11/05 12:49:30;;;;;;;1.90;1.02;;;12.50;99.90;;;;;;5010874;28;20050;-65
2022/11/05 12:52:13;;;;;;;2.83;1.10;;;12.50;99.90;;;;;;5011213;28;20108;-66
2022/11/05 12:54:53;;;;;;;4.72;1.13;;;12.40;99.90;;;;;;5008970;28;20061;-65
2022/11/05 12:57:22;;;;;;;2.43;1.07;;;12.40;99.90;;;;;;5008320;28;20054;-64
2022/11/05 12:59:54;;;;;;;4.53;1.00;;;12.30;99.90;;;;;;5031020;28;20630;-64
2022/11/05 13:02:26;;;;;;;3.90;0.93;;;12.20;99.90;;;;;;5007420;28;20065;-65
2022/11/05 13:04:57;;;;;;;4.15;1.23;;;12.00;99.90;;;;;;5028900;28;20497;-65
2022/11/05 13:07:30;;;;;;;2.95;1.10;;;11.80;99.90;;;;;;5009095;28;20509;-65
2022/11/05 13:10:03;;;;;;;2.80;1.05;;;11.60;99.90;;;;;;5027132;28;20116;-65
2022/11/05 13:12:33;;;;;;;6.32;0.95;;;11.50;99.90;;;;;;5014072;28;20111;-65
2022/11/05 13:15:03;;;;;;;4.03;1.23;;;11.40;99.90;;;;;;5026681;28;20077;-65
2022/11/05 13:17:35;;;;;;;1.58;0.85;;;11.20;99.90;;;;;;5006724;28;20054;-66
2022/11/05 13:20:08;;;;;;;3.08;1.00;;;11.20;99.90;;;;;;5009829;28;20112;-65
2022/11/05 13:22:40;;;;;;;3.13;0.98;;;11.20;99.90;;;;;;5010135;28;20523;-64
2022/11/05 13:25:17;;;;;;;4.85;1.30;;;11.30;99.90;;;;;;5009237;28;20136;-65
2022/11/05 13:27:54;;;;;;;2.85;1.13;;;11.30;99.90;;;;;;5012088;28;20566;-66
2022/11/05 13:30:23;;;;;;;5.68;1.42;;;11.50;99.90;;;;;;5008498;28;20437;-66
2022/11/05 13:32:57;;;;;;;3.83;1.20;;;11.60;99.90;;;;;;5025649;28;20091;-74
2022/11/05 13:35:29;;;;;;;1.90;1.10;;;11.70;99.90;;;;;;5011436;28;20115;-70
2022/11/05 13:41:08;;;;;;;2.75;1.67;;;11.80;99.90;;;;;;4990326;28;20127;-66
2022/11/05 13:44:02;;;;;;;4.80;1.65;;;11.90;99.90;;;;;;5013311;28;20045;-66
2022/11/05 13:46:44;;;;;;;5.95;1.50;;;11.90;99.90;;;;;;5023134;28;20459;-66
2022/11/05 13:49:41;;;;;;;5.75;2.50;;;11.90;99.90;;;;;;5007262;28;20049;-65
2022/11/05 13:52:31;;;;;;;3.13;1.65;;;11.90;99.90;;;;;;5023066;28;20104;-66